• Join FlightAware (Why Join?)
  • Login
  • US Flag 
05:31AM EDT


 

Airport Tracker/Info


-or-


 

Live Flight TrackerFlight Track Log ✈ SKW6306 ✈ 25-Jun-2013 ✈ CYXE - KDEN

Flight Track Log - Related Links

Times and Time Zones

All times are in EDT time to prevent confusion due to time zone crossing. See the SKW6306 flight status page for this flight to view local times or setup timezone preferences in your user account.

Time Position Orientation Groundspeed Altitude Reporting Facility
EDT Latitude Longitude Course Direction KTS MPH feet Rate Location/Type
04:55PM 52.1167 -106.6333 148° Southeast 210 242 4,600  Level Winnipeg Center
04:56PM 52.0500 -106.6000 163° South 260 299 6,700 2,340 Climbing Winnipeg Center
04:57PM 51.7294 -106.9354 197° South  Level FlightAware Approximate
04:57PM 51.9833 -106.6333 197° South 280 322 9,300  Level Winnipeg Center
04:58PM 51.6177 -106.9833 180° South  Level FlightAware Approximate
04:58PM 51.9000 -106.7000 206° Southwest 300 345 11,300  Level Winnipeg Center
04:59PM 51.5094 -107.0485 198° South  Level FlightAware Approximate
04:59PM 51.8167 -106.7667 206° Southwest 320 368 13,000  Level Winnipeg Center
05:00PM 51.7500 -106.8000 197° South 320 368 15,200 1,860 Climbing Winnipeg Center
05:01PM 51.6500 -106.8667 202° Southwest 320 368 16,800 1,200 Climbing Winnipeg Center
05:02PM 51.5667 -106.9167 200° South 330 380 17,700 1,080 Climbing Winnipeg Center
05:03PM 51.4667 -106.9833 203° Southwest 350 403 19,000 1,200 Climbing Winnipeg Center
05:04PM 51.3833 -107.0167 194° South 350 403 20,200 1,020 Climbing Winnipeg Center
05:05PM 51.3000 -107.0833 207° Southwest 360 414 21,100 960 Climbing Winnipeg Center
05:06PM 51.2000 -107.1333 197° South 360 414 22,200 1,020 Climbing Winnipeg Center
05:07PM 51.1000 -107.2000 203° Southwest 370 426 23,200 960 Climbing Winnipeg Center
05:08PM 51.0000 -107.2833 208° Southwest 370 426 24,200 900 Climbing Winnipeg Center
05:09PM 50.9000 -107.3333 198° South 380 437 25,100 900 Climbing Winnipeg Center
05:10PM 50.8000 -107.4000 203° Southwest 380 437 26,000 780 Climbing Winnipeg Center
05:11PM 50.7000 -107.4500 198° South 380 437 26,700 720 Climbing Winnipeg Center
05:12PM 50.6167 -107.5167 207° Southwest 380 437 27,500 780 Climbing Winnipeg Center
05:13PM 50.5167 -107.5667 198° South 380 437 28,300 660 Climbing Winnipeg Center
05:14PM 50.4000 -107.6500 204° Southwest 380 437 28,900 540 Climbing Winnipeg Center
05:15PM 50.3000 -107.7000 198° South 390 449 29,400 600 Climbing Winnipeg Center
05:16PM 50.2000 -107.7000 180° South 380 437 30,200 660 Climbing Winnipeg Center
05:17PM 50.1167 -107.7333 194° South 380 437 30,800 600 Climbing Winnipeg Center
05:18PM 50.0000 -107.6833 165° South 380 437 31,400 600 Climbing Winnipeg Center
05:19PM 49.9000 -107.6833 180° South 380 437 32,000 720 Climbing Winnipeg Center
05:20PM 49.8000 -107.6667 174° South 370 426 32,900 480 Climbing Winnipeg Center
05:21PM 49.6833 -107.6667 180° South 370 426 33,000  Climbing Winnipeg Center
05:22PM 49.5833 -107.6500 174° South 380 437 33,000  Level Winnipeg Center
05:23PM 49.4667 -107.6167 169° South 390 449 33,000  Level Winnipeg Center
05:24PM 49.3667 -107.6167 180° South 390 449 33,000  Level Winnipeg Center
05:25PM 49.2500 -107.6167 180° South 400 460 33,000  Level Winnipeg Center
05:26PM 49.1500 -107.6000 174° South 400 460 33,000  Level Winnipeg Center
05:27PM 49.0333 -107.6000 180° South 410 472 33,000  Level Winnipeg Center
05:28PM 48.9167 -107.5667 169° South 410 472 33,000  Level Winnipeg Center
05:28PM 48.8686 -107.5422 161° South 411 473 33,000  Level Salt Lake Center
05:29PM 48.7544 -107.5269 175° South 413 475 33,000  Level Salt Lake Center
05:30PM 48.6386 -107.5131 175° South 416 479 33,000  Level Salt Lake Center
05:31PM 48.5133 -107.4967 175° South 418 481 33,000  Level Salt Lake Center
05:32PM 48.3975 -107.4822 175° South 419 482 33,000  Level Salt Lake Center
05:33PM 48.2794 -107.4667 175° South 424 488 33,000  Level Salt Lake Center
05:34PM 48.1611 -107.4519 175° South 425 489 33,000  Level Salt Lake Center
05:35PM 48.0197 -107.4344 175° South 425 489 33,000  Level Salt Lake Center
05:37PM 47.9031 -107.4194 175° South 424 488 33,000  Level Salt Lake Center
05:38PM 47.7953 -107.4067 175° South 425 489 33,000  Level Salt Lake Center
05:39PM 47.6561 -107.3894 175° South 424 488 33,000  Level Salt Lake Center
05:40PM 47.5392 -107.3756 175° South 422 486 33,000  Level Salt Lake Center
05:41PM 47.4222 -107.3608 175° South 423 487 33,000  Level Salt Lake Center
05:42PM 47.3025 -107.3461 175° South 427 491 33,000  Level Salt Lake Center
05:43PM 47.1814 -107.3311 175° South 433 498 33,000  Level Salt Lake Center
05:44PM 47.0639 -107.3164 175° South 431 496 33,000  Level Salt Lake Center
05:45PM 46.9161 -107.2992 175° South 438 504 33,000  Level Salt Lake Center
05:46PM 46.7964 -107.2853 175° South 438 504 33,000  Level Salt Lake Center
05:47PM 46.6761 -107.2719 176° South 435 501 33,000  Level Salt Lake Center
05:48PM 46.5556 -107.2572 175° South 435 501 33,000  Level Salt Lake Center
05:49PM 46.4339 -107.2411 175° South 437 503 33,000  Level Salt Lake Center
05:50PM 46.2903 -107.2219 175° South 437 503 33,000  Level Salt Lake Center
05:51PM 46.1694 -107.2108 176° South 428 493 33,000  Level Salt Lake Center
05:52PM 46.0519 -107.1972 175° South 426 490 33,000  Level Salt Lake Center
05:53PM 45.9247 -107.1817 175° South 428 493 33,000  Level Salt Lake Center
05:54PM 45.8075 -107.1689 176° South 426 490 33,000  Level Salt Lake Center
05:55PM 45.7042 -107.1575 176° South 425 489 33,000  Level Salt Lake Center
05:56PM 45.5622 -107.1425 176° South 426 490 33,000  Level Salt Lake Center
05:57PM 45.4433 -107.1269 175° South 428 493 33,000  Level Salt Lake Center
05:58PM 45.3283 -107.1186 177° South 425 489 33,000  Level Salt Lake Center
05:59PM 45.2103 -107.1047 175° South 429 494 33,000  Level Salt Lake Center
06:00PM 45.0783 -107.0897 175° South 427 491 33,000  Level Salt Lake Center
06:01PM 44.9656 -107.0775 176° South 427 491 33,000  Level Salt Lake Center
06:02PM 44.8344 -107.0614 175° South 424 488 33,000  Level Salt Lake Center
06:03PM 44.7194 -107.0303 169° South 435 501 33,000  Level Salt Lake Center
06:04PM 44.5831 -106.9956 170° South 443 510 33,000  Level Salt Lake Center
06:05PM 44.4694 -106.9664 170° South 438 504 33,000  Level Salt Lake Center
06:06PM 44.3328 -106.9325 170° South 443 510 33,000  Level Salt Lake Center
06:08PM 44.2169 -106.9053 170° South 443 510 33,000  Level Salt Lake Center
06:09PM 44.0831 -106.8725 170° South 437 503 33,000  Level Salt Lake Center
06:10PM 43.9689 -106.8431 169° South 437 503 33,000  Level Salt Lake Center
06:11PM 43.8328 -106.8083 170° South 442 509 33,000  Level Denver Center
06:12PM 43.7158 -106.7789 170° South 444 511 33,000  Level Denver Center
06:13PM 43.5781 -106.7464 170° South 450 518 33,000  Level Denver Center
06:14PM 43.4586 -106.7181 170° South 454 522 33,000  Level Denver Center
06:15PM 43.3194 -106.6831 170° South 455 524 33,000  Level Denver Center
06:16PM 43.2017 -106.6539 170° South 453 521 33,000  Level Denver Center
06:17PM 43.0844 -106.6261 170° South 448 516 33,000  Level Denver Center
06:18PM 42.9481 -106.5939 170° South 446 513 33,000  Level Denver Center
06:19PM 42.8308 -106.5656 170° South 447 514 33,000  Level Denver Center
06:20PM 42.6931 -106.5336 170° South 450 518 33,000  Level Denver Center
06:21PM 42.5781 -106.5058 170° South 443 510 33,000  Level Denver Center
06:22PM 42.4419 -106.4731 170° South 442 509 33,000  Level Denver Center
06:23PM 42.3278 -106.4478 171° South 438 504 33,000  Level Denver Center
06:24PM 42.1936 -106.4158 170° South 438 504 33,000  Level Denver Center
06:25PM 42.0789 -106.3889 170° South 438 504 33,000  Level Denver Center
06:26PM 41.9450 -106.3575 170° South 438 504 33,000  Level Denver Center
06:27PM 41.8278 -106.3306 170° South 444 511 33,000  Level Denver Center
06:28PM 41.6944 -106.2992 170° South 439 505 33,000  Level Denver Center
06:29PM 41.5786 -106.2725 170° South 441 507 33,000  Level Denver Center
06:30PM 41.4447 -106.2408 170° South 438 504 33,000  Level Denver Center
06:31PM 41.3328 -106.1908 161° South 442 509 33,000  Level Denver Center
06:32PM 41.2197 -106.1425 162° South 445 512 33,000 -420 Level Denver Center
06:33PM 41.0881 -106.0808 161° South 451 519 32,200 -1,080 Descending Denver Center
06:34PM 40.9839 -106.0217 157° South 459 528 30,900 -1,200 Descending Denver Center
06:35PM 40.8619 -105.9061 144° Southeast 456 525 29,800 -1,020 Descending Denver Center
06:36PM 40.7906 -105.7778 126° Southeast 459 528 28,900 -1,140 Descending Denver Center
06:37PM 40.7103 -105.6322 126° Southeast 457 526 27,500 -1,740 Descending Denver Center
06:38PM 40.6383 -105.5022 126° Southeast 442 509 25,400 -2,100 Descending Denver Center
06:40PM 40.5633 -105.3675 126° Southeast 414 476 23,200 -1,980 Descending Denver Center
06:41PM 40.4989 -105.2575 128° Southeast 401 461 21,400 -1,920 Descending Denver Center
06:42PM 40.4106 -105.1678 142° Southeast 370 426 19,300 -1,860 Descending Denver Center
06:43PM 40.3356 -105.0883 141° Southeast 349 402 17,600 -1,500 Descending Denver Center
06:44PM 40.2494 -105.0253 151° Southeast 331 381 16,200 -1,080 Descending Denver Center
06:45PM 40.1744 -104.9694 150° Southeast 313 360 15,400 -900 Descending Denver Center
06:46PM 40.0956 -104.9142 152° Southeast 320 368 14,400 -1,020 Descending Denver Center
06:47PM 40.0119 -104.8533 151° Southeast 320 368 13,400 -1,260 Descending Denver Center
06:48PM 39.9358 -104.8006 152° Southeast 313 360 11,900 -1,200 Descending Denver Center
06:49PM 39.8494 -104.7925 176° South 292 336 11,000 -600 Descending Denver Center
06:50PM 39.7747 -104.7878 177° South 276 318 10,700 -720 Descending Denver Center
06:51PM 39.6986 -104.7736 172° South 264 304 9,600 -1,140 Descending Denver Center